Time;durP1;ratioP1;P1;durP2;ratioP2;P2;SDS_P1;SDS_P2;PMS_P1;PMS_P2;Temp;Humidity;BMP_temperature;BMP_pressure;BME280_temperature;BME280_humidity;BME280_pressure;Samples;Min_cycle;Max_cycle;Signal;HPM_P1;HPM_P2
2022/11/14 00:00:58;;;;;;;362.33;41.35;;;;;;;7.84;99.76;99107.94;4519753;31;20442;-79
2022/11/14 00:03:25;;;;;;;445.35;45.03;;;;;;;7.89;98.74;99105.34;4505707;31;20102;-79
2022/11/14 00:05:52;;;;;;;;;;;;;;;8.51;95.81;99113.78;4520240;31;20110;-79
2022/11/14 00:08:21;;;;;;;363.45;38.30;;;;;;;8.57;94.14;99109.34;4519865;31;20294;-79
2022/11/14 00:10:49;;;;;;;456.60;46.50;;;;;;;8.11;97.04;99112.69;4519287;31;20091;-79
2022/11/14 00:13:17;;;;;;;439.10;44.53;;;;;;;7.87;98.71;99112.19;4519929;31;20087;-79
2022/11/14 00:15:49;;;;;;;386.75;42.80;;;;;;;7.63;100.00;99103.97;4519827;31;20102;-79
2022/11/14 00:18:16;;;;;;;311.27;37.85;;;;;;;7.00;100.00;99095.38;4519593;31;20217;-79
2022/11/14 00:20:49;;;;;;;432.88;46.70;;;;;;;6.47;100.00;99086.53;4519558;31;20104;-79
2022/11/14 00:23:16;;;;;;;386.48;43.47;;;;;;;6.35;100.00;99085.78;4519729;31;20144;-79
2022/11/14 00:25:44;;;;;;;498.73;51.55;;;;;;;6.45;100.00;99080.59;4519124;31;20234;-79
2022/11/14 00:28:11;;;;;;;446.67;46.97;;;;;;;6.58;100.00;99077.88;4519673;31;20203;-79
2022/11/14 00:30:38;;;;;;;498.52;54.83;;;;;;;6.74;100.00;99073.44;4519474;31;20095;-79
2022/11/14 00:33:05;;;;;;;529.95;54.58;;;;;;;6.93;100.00;99076.66;4519426;31;20084;-79
2022/11/14 00:35:31;;;;;;;;;;;;;;;6.98;100.00;99085.13;4520007;31;20087;-79
2022/11/14 00:37:58;;;;;;;476.80;47.65;;;;;;;7.27;100.00;99076.25;4519748;31;19990;-79
2022/11/14 00:40:25;;;;;;;;;;;;;;;7.27;100.00;99078.81;4519532;31;20110;-79
2022/11/14 00:42:52;;;;;;;567.03;55.15;;;;;;;7.38;100.00;99080.34;4519769;31;19971;-79
2022/11/14 00:45:18;;;;;;;;;;;;;;;7.42;100.00;99081.16;4519958;31;20083;-79
2022/11/14 00:47:45;;;;;;;317.60;40.58;;;;;;;7.37;100.00;99080.38;4519428;31;20027;-79
2022/11/14 00:50:12;;;;;;;;;;;;;;;8.11;100.00;99084.41;4519661;31;20114;-79
2022/11/14 00:52:39;;;;;;;280.65;37.05;;;;;;;8.36;99.51;99089.16;4519358;31;20222;-79
2022/11/14 00:55:06;;;;;;;389.20;42.62;;;;;;;8.18;100.00;99089.44;4519583;31;20076;-79
2022/11/14 00:57:33;;;;;;;424.58;44.00;;;;;;;7.66;100.00;99080.84;4519793;31;20083;-79
2022/11/14 01:00:00;;;;;;;;;;;;;;;7.85;100.00;99094.22;4519346;31;20099;-79
2022/11/14 01:02:27;;;;;;;423.98;42.30;;;;;;;8.06;100.00;99083.62;4519566;31;19971;-79
2022/11/14 01:04:54;;;;;;;338.83;39.78;;;;;;;7.74;100.00;99089.25;4519462;31;20102;-79
2022/11/14 01:07:20;;;;;;;;;;;;;;;7.31;100.00;99088.16;4519391;31;20092;-79
2022/11/14 01:09:47;;;;;;;416.40;43.50;;;;;;;7.84;100.00;99090.81;4519320;31;20005;-79
2022/11/14 01:12:14;;;;;;;382.55;42.88;;;;;;;8.21;100.00;99086.81;4505053;31;20091;-79
2022/11/14 01:14:41;;;;;;;370.33;40.97;;;;;;;8.46;100.00;99084.72;4519070;31;20410;-79
2022/11/14 01:17:08;;;;;;;354.83;42.10;;;;;;;7.75;100.00;99090.94;4519305;31;20091;-79
2022/11/14 01:19:35;;;;;;;250.87;36.30;;;;;;;7.84;100.00;99087.41;4519293;31;20084;-79
2022/11/14 01:22:02;;;;;;;386.15;43.55;;;;;;;8.55;99.56;99077.69;4518930;31;20168;-79
2022/11/14 01:24:33;;;;;;;335.50;44.53;;;;;;;7.84;100.00;99083.09;4519370;31;20092;-79
2022/11/14 01:27:00;;;;;;;351.55;42.58;;;;;;;7.36;100.00;99071.84;4519117;31;20111;-79
2022/11/14 01:29:27;;;;;;;344.58;42.55;;;;;;;7.35;100.00;99077.00;4518697;31;20568;-79
2022/11/14 01:31:54;;;;;;;365.37;43.58;;;;;;;7.52;100.00;99068.16;4519178;31;20156;-79
2022/11/14 01:34:22;;;;;;;434.87;49.67;;;;;;;7.85;100.00;99068.53;4519327;31;20071;-79
2022/11/14 01:36:49;;;;;;;204.30;36.83;;;;;;;7.34;100.00;99059.91;4518981;31;20087;-79
2022/11/14 01:39:15;;;;;;;;;;;;;;;7.44;100.00;99062.31;4519495;31;20099;-79
2022/11/14 01:41:42;;;;;;;422.27;47.33;;;;;;;7.19;100.00;99061.78;4518997;31;19974;-79
2022/11/14 01:44:15;;;;;;;475.27;50.88;;;;;;;7.19;100.00;99053.22;4519179;31;20083;-79
2022/11/14 01:46:46;;;;;;;349.80;43.45;;;;;;;7.01;100.00;99059.44;4505090;31;20100;-79
2022/11/14 01:49:17;;;;;;;192.93;34.20;;;;;;;6.93;100.00;99049.28;4504349;31;20104;-79
2022/11/14 01:51:48;;;;;;;199.02;34.83;;;;;;;6.62;100.00;99059.03;4519040;31;20100;-79
2022/11/14 01:54:27;;;;;;;263.08;40.40;;;;;;;6.42;100.00;99055.84;4519117;31;20433;-79
2022/11/14 01:56:57;;;;;;;346.23;44.25;;;;;;;6.42;100.00;99052.41;4518029;31;20106;-79
2022/11/14 01:59:28;;;;;;;398.55;45.12;;;;;;;6.29;100.00;99046.56;4519055;31;20122;-79
2022/11/14 02:01:56;;;;;;;365.55;44.63;;;;;;;6.40;100.00;99044.75;4518982;31;20199;-79
2022/11/14 02:04:27;;;;;;;448.98;51.35;;;;;;;6.49;100.00;99046.38;4504231;31;20079;-79
2022/11/14 02:06:56;;;;;;;207.00;34.88;;;;;;;6.58;100.00;99041.97;4504813;31;20148;-79
2022/11/14 02:09:24;;;;;;;416.62;48.80;;;;;;;6.50;100.00;99035.25;4504383;31;20480;-79
2022/11/14 02:11:52;;;;;;;280.05;39.25;;;;;;;6.67;100.00;99039.31;4504188;31;20092;-79
2022/11/14 02:14:19;;;;;;;178.20;32.78;;;;;;;6.75;100.00;99046.94;4504559;31;20152;-79
2022/11/14 02:16:46;;;;;;;381.10;44.83;;;;;;;6.76;100.00;99037.50;4518810;31;20095;-79
2022/11/14 02:19:48;;;;;;;390.05;45.80;;;;;;;6.90;100.00;99027.94;4506663;31;20087;-79
2022/11/14 02:22:15;;;;;;;550.35;56.90;;;;;;;6.66;100.00;99029.91;4518656;31;20091;-79
2022/11/14 02:24:43;;;;;;;411.85;48.65;;;;;;;6.57;100.00;99024.87;4518438;31;20701;-79
2022/11/14 02:27:10;;;;;;;393.55;49.17;;;;;;;6.93;100.00;99027.91;4518484;31;20140;-79
2022/11/14 02:29:37;;;;;;;324.70;40.95;;;;;;;7.02;100.00;99034.63;4504136;31;20480;-79
2022/11/14 02:32:05;;;;;;;472.55;50.58;;;;;;;6.91;100.00;99037.31;4518154;31;20442;-79
2022/11/14 02:34:37;;;;;;;137.55;30.15;;;;;;;6.97;100.00;99032.13;4518608;31;20458;-79
2022/11/14 02:37:04;;;;;;;351.50;43.42;;;;;;;7.60;100.00;99028.69;4518478;31;20092;-79
2022/11/14 02:39:31;;;;;;;304.08;39.70;;;;;;;7.49;100.00;99023.72;4518123;31;20540;-79
2022/11/14 02:41:58;;;;;;;228.77;37.35;;;;;;;7.18;100.00;99023.28;4518432;31;20143;-79
2022/11/14 02:44:25;;;;;;;291.73;39.45;;;;;;;6.93;100.00;99017.66;4518403;31;20088;-79
2022/11/14 02:46:52;;;;;;;293.48;39.42;;;;;;;7.04;100.00;99020.06;4518119;31;20502;-79
2022/11/14 02:49:19;;;;;;;;;;;;;;;7.11;100.00;99019.94;4518559;31;20504;-79
2022/11/14 02:51:46;;;;;;;184.20;32.15;;;;;;;6.92;100.00;99018.53;4518331;31;19967;-79
2022/11/14 02:54:12;;;;;;;;;;;;;;;6.75;100.00;99016.16;4518250;31;20110;-79
2022/11/14 02:56:39;;;;;;;204.65;31.65;;;;;;;6.63;100.00;99011.16;4518320;31;19976;-79
2022/11/14 02:59:06;;;;;;;;;;;;;;;6.37;100.00;99014.00;4518105;31;20118;-79
2022/11/14 03:01:33;;;;;;;208.68;31.60;;;;;;;6.53;100.00;99015.53;4518208;31;19986;-79
2022/11/14 03:04:00;;;;;;;185.52;31.02;;;;;;;6.62;100.00;99020.56;4518076;31;20106;-79
2022/11/14 03:06:27;;;;;;;260.00;39.35;;;;;;;6.16;100.00;99007.38;4517752;31;20100;-79
2022/11/14 03:08:53;;;;;;;;;;;;;;;6.00;100.00;99004.13;4519358;31;20567;-79
2022/11/14 03:11:20;;;;;;;138.55;27.85;;;;;;;5.88;100.00;99005.91;4520228;31;19971;-79
2022/11/14 03:13:47;;;;;;;;;;;;;;;5.95;100.00;99005.84;4520498;31;20080;-79
2022/11/14 03:16:14;;;;;;;214.63;35.33;;;;;;;5.84;100.00;99010.19;4520427;31;20292;-79
2022/11/14 03:18:41;;;;;;;163.05;29.87;;;;;;;6.21;100.00;98997.94;4520232;31;20099;-79
2022/11/14 03:21:10;;;;;;;258.70;38.08;;;;;;;6.07;100.00;98995.53;4519836;31;20083;-79
2022/11/14 03:23:37;;;;;;;232.20;36.55;;;;;;;6.45;100.00;99001.09;4520192;31;20098;-79
2022/11/14 03:26:05;;;;;;;;;;;;;;;6.41;100.00;98990.06;4520262;31;20428;-79
2022/11/14 03:28:32;;;;;;;;;;;;;;;6.23;100.00;98987.66;4520411;31;19967;-79
2022/11/14 03:30:59;;;;;;;139.80;28.12;;;;;;;6.09;100.00;98990.38;4520005;31;19972;-79
2022/11/14 03:33:25;;;;;;;;;;;;;;;5.78;100.00;98989.78;4520431;31;20098;-79
2022/11/14 03:35:53;;;;;;;171.80;32.67;;;;;;;6.31;100.00;98989.28;4520018;31;19991;-79
2022/11/14 03:38:23;;;;;;;262.30;37.42;;;;;;;6.25;100.00;98981.66;4520054;31;20080;-79
2022/11/14 03:40:50;;;;;;;227.68;35.60;;;;;;;6.15;100.00;98974.94;4519970;31;20080;-79
2022/11/14 03:43:18;;;;;;;229.00;31.65;;;;;;;5.82;100.00;98971.78;4519870;31;20079;-79
2022/11/14 03:45:46;;;;;;;173.32;30.60;;;;;;;5.71;100.00;98975.31;4520114;31;20386;-79
2022/11/14 03:48:13;;;;;;;290.87;40.33;;;;;;;5.97;100.00;98973.41;4519600;31;20464;-79
2022/11/14 03:50:41;;;;;;;126.78;26.75;;;;;;;6.16;100.00;98963.81;4519569;31;20140;-79
2022/11/14 03:53:08;;;;;;;375.02;43.75;;;;;;;5.73;100.00;98965.91;4520043;31;20084;-79
2022/11/14 03:55:36;;;;;;;225.77;32.63;;;;;;;5.68;100.00;98968.53;4505332;31;20104;-79
2022/11/14 03:58:04;;;;;;;268.50;36.38;;;;;;;5.68;100.00;98965.97;4519966;31;20079;-79
2022/11/14 04:00:30;;;;;;;385.20;44.33;;;;;;;5.82;100.00;98971.78;4519851;31;20115;-79
2022/11/14 04:02:57;;;;;;;266.60;36.03;;;;;;;5.84;100.00;98973.50;4519548;31;20433;-79
2022/11/14 04:05:24;;;;;;;221.98;32.08;;;;;;;5.67;100.00;98965.97;4519873;31;20111;-79
2022/11/14 04:07:51;;;;;;;159.63;27.48;;;;;;;5.56;100.00;98970.34;4519882;31;20144;-79
2022/11/14 04:10:18;;;;;;;;;;;;;;;5.66;100.00;98969.41;4519519;31;20114;-79
2022/11/14 04:12:53;;;;;;;142.85;25.25;;;;;;;5.83;100.00;98972.66;4519880;31;20476;-79
2022/11/14 04:15:20;;;;;;;177.98;27.13;;;;;;;5.41;100.00;98967.00;4519778;31;20092;-79
2022/11/14 04:17:47;;;;;;;;;;;;;;;5.36;100.00;98967.91;4519777;31;20075;-79
2022/11/14 04:20:14;;;;;;;283.00;35.38;;;;;;;5.36;100.00;98973.88;4519430;31;19963;-79
2022/11/14 04:22:41;;;;;;;213.20;29.27;;;;;;;5.23;100.00;98977.41;4519691;31;20075;-79
2022/11/14 04:25:08;;;;;;;330.05;36.55;;;;;;;5.25;100.00;98982.50;4519121;31;20084;-79
2022/11/14 04:27:35;;;;;;;209.62;29.02;;;;;;;5.10;100.00;98984.28;4519733;31;20147;-79
2022/11/14 04:30:03;;;;;;;235.85;31.33;;;;;;;5.07;100.00;98981.75;4519453;31;20088;-79
2022/11/14 04:32:30;;;;;;;294.58;33.45;;;;;;;4.92;100.00;98976.72;4519410;31;20433;-79
2022/11/14 04:34:57;;;;;;;319.15;35.40;;;;;;;5.10;100.00;98976.59;4519726;31;20092;-79
2022/11/14 04:37:24;;;;;;;;;;;;;;;5.22;100.00;98984.22;4519649;31;20096;-79
2022/11/14 04:39:51;;;;;;;387.70;38.20;;;;;;;5.26;100.00;98989.31;4519541;31;20301;-79
2022/11/14 04:42:18;;;;;;;444.90;42.83;;;;;;;5.22;100.00;98989.34;4519531;31;20339;-79
2022/11/14 04:44:45;;;;;;;253.90;29.70;;;;;;;5.37;100.00;98982.41;4519236;31;20234;-79
2022/11/14 04:47:12;;;;;;;221.75;31.58;;;;;;;5.51;100.00;98978.88;4519577;31;20096;-79
2022/11/14 04:49:39;;;;;;;164.95;26.33;;;;;;;5.12;100.00;98969.78;4519268;31;20102;-79
2022/11/14 04:52:06;;;;;;;318.52;34.92;;;;;;;5.35;100.00;98973.91;4519083;31;20084;-79
2022/11/14 04:54:33;;;;;;;201.52;27.08;;;;;;;5.10;100.00;98968.06;4519559;31;20112;-79
2022/11/14 04:56:59;;;;;;;;;;;;;;;4.88;100.00;98972.47;4519866;31;20087;-79
2022/11/14 04:59:26;;;;;;;238.12;27.27;;;;;;;4.78;100.00;98968.25;4519037;31;19976;-79
2022/11/14 05:01:53;;;;;;;232.05;28.90;;;;;;;4.95;100.00;98976.69;4519418;31;20080;-79
2022/11/14 05:04:20;;;;;;;302.30;31.83;;;;;;;5.14;100.00;98970.63;4519353;31;20106;-79
2022/11/14 05:06:47;;;;;;;358.98;36.20;;;;;;;5.46;100.00;98975.53;4519045;31;20446;-79
2022/11/14 05:09:14;;;;;;;253.43;29.35;;;;;;;5.29;100.00;98977.34;4519235;31;20092;-79
2022/11/14 05:11:41;;;;;;;251.05;30.52;;;;;;;5.00;100.00;98976.66;4519270;31;20079;-79
2022/11/14 05:14:07;;;;;;;;;;;;;;;5.06;100.00;98981.75;4519425;31;20433;-79
2022/11/14 05:16:34;;;;;;;244.87;30.58;;;;;;;5.23;100.00;98985.91;4519476;31;20314;-79
2022/11/14 05:19:01;;;;;;;316.95;33.88;;;;;;;5.04;100.00;98980.91;4519192;31;20366;-79
2022/11/14 05:21:28;;;;;;;410.70;40.55;;;;;;;4.94;100.00;98975.84;4518914;31;20084;-79
2022/11/14 05:23:55;;;;;;;;;;;;;;;5.12;100.00;98980.03;4519683;31;20114;-79
2022/11/14 05:26:22;;;;;;;386.05;38.75;;;;;;;6.01;100.00;98980.19;4518872;31;19974;-79
2022/11/14 05:28:49;;;;;;;;;;;;;;;5.79;100.00;98981.22;4519504;31;20103;-79
2022/11/14 05:31:16;;;;;;;257.33;31.58;;;;;;;5.93;100.00;98981.13;4518268;31;19963;-79
2022/11/14 05:33:44;;;;;;;187.73;28.92;;;;;;;5.64;100.00;98982.22;4518801;31;20103;-79
2022/11/14 05:36:14;;;;;;;380.65;36.63;;;;;;;5.80;100.00;98988.03;4519247;31;20084;-79
2022/11/14 05:38:41;;;;;;;156.70;26.12;;;;;;;5.37;100.00;98979.84;4504889;31;20102;-79
2022/11/14 05:41:11;;;;;;;231.60;30.58;;;;;;;5.49;100.00;98967.81;4518865;31;20075;-79
2022/11/14 05:43:38;;;;;;;345.25;38.65;;;;;;;5.48;100.00;98970.38;4519316;31;20130;-79
2022/11/14 05:46:08;;;;;;;418.75;43.42;;;;;;;4.91;100.00;98965.66;4519171;31;20118;-79
2022/11/14 05:48:35;;;;;;;490.08;44.80;;;;;;;5.56;100.00;98973.75;4518741;31;20079;-79
2022/11/14 05:51:03;;;;;;;448.40;44.50;;;;;;;5.58;100.00;98982.25;4518968;31;20105;-79
2022/11/14 05:53:32;;;;;;;285.42;34.15;;;;;;;5.40;100.00;98977.25;4519153;31;20084;-79
2022/11/14 05:56:00;;;;;;;302.90;34.90;;;;;;;5.92;100.00;98976.88;4518857;31;20106;-79
2022/11/14 05:58:27;;;;;;;211.87;30.12;;;;;;;5.61;100.00;98981.38;4519125;31;20080;-79
2022/11/14 06:01:08;;;;;;;222.25;31.20;;;;;;;5.03;100.00;98967.28;4518881;31;20095;-79
2022/11/14 06:03:39;;;;;;;271.62;31.08;;;;;;;4.84;100.00;98969.09;4504361;31;20119;-79
2022/11/14 06:06:07;;;;;;;457.05;42.28;;;;;;;5.13;100.00;98971.50;4519041;31;20099;-79
2022/11/14 06:08:35;;;;;;;351.10;35.60;;;;;;;5.42;100.00;98983.22;4518592;31;20429;-79
2022/11/14 06:11:04;;;;;;;382.45;35.83;;;;;;;5.29;100.00;98986.72;4504367;31;20463;-79
2022/11/14 06:13:31;;;;;;;216.77;29.83;;;;;;;5.66;100.00;98982.19;4518836;31;20088;-79
2022/11/14 06:16:03;;;;;;;401.05;36.90;;;;;;;4.96;100.00;98987.78;4518532;31;20092;-79
2022/11/14 06:18:31;;;;;;;314.42;32.80;;;;;;;4.70;100.00;98990.47;4518867;31;20425;-79
2022/11/14 06:21:00;;;;;;;318.55;32.53;;;;;;;5.46;100.00;98980.63;4518687;31;20075;-79
2022/11/14 06:23:27;;;;;;;214.32;25.80;;;;;;;5.35;100.00;98989.25;4518405;31;20191;-79
2022/11/14 06:25:59;;;;;;;216.57;25.52;;;;;;;5.89;100.00;98987.97;4518401;31;20108;-79
2022/11/14 06:28:27;;;;;;;203.80;24.05;;;;;;;5.52;100.00;98988.25;4518696;31;20098;-79
2022/11/14 06:30:58;;;;;;;219.52;27.55;;;;;;;5.27;100.00;98988.44;4518155;31;20114;-79
2022/11/14 06:33:26;;;;;;;416.08;38.45;;;;;;;5.89;100.00;98989.69;4518562;31;20110;-79
2022/11/14 06:36:01;;;;;;;300.65;31.48;;;;;;;6.44;100.00;98977.19;4518495;31;20095;-79
2022/11/14 06:38:30;;;;;;;335.88;31.77;;;;;;;6.75;100.00;98990.50;4518054;31;20080;-79
2022/11/14 06:41:08;;;;;;;197.52;22.92;;;;;;;6.53;100.00;98991.62;4518291;31;20067;-79
2022/11/14 06:43:37;;;;;;;104.00;21.05;;;;;;;6.20;100.00;98990.28;4519846;31;20439;-79
2022/11/14 06:46:05;;;;;;;239.07;25.70;;;;;;;5.89;100.00;98984.56;4520623;31;20091;-79
2022/11/14 06:48:32;;;;;;;177.12;22.50;;;;;;;5.91;100.00;98988.00;4520312;31;20354;-80
2022/11/14 06:51:00;;;;;;;118.35;19.90;;;;;;;5.85;100.00;98983.75;4519975;31;20122;-80
2022/11/14 06:53:29;;;;;;;115.00;20.25;;;;;;;5.86;100.00;98985.44;4519700;31;20113;-79
2022/11/14 06:56:00;;;;;;;115.68;20.33;;;;;;;5.65;100.00;98986.47;4520012;31;20144;-79
2022/11/14 06:58:28;;;;;;;124.85;20.27;;;;;;;5.47;100.00;98991.72;4519878;31;20080;-79
2022/11/14 07:01:01;;;;;;;63.65;16.58;;;;;;;5.64;100.00;98986.50;4505656;31;20483;-79
2022/11/14 07:03:28;;;;;;;49.53;15.90;;;;;;;6.16;100.00;98994.56;4520267;31;20092;-79
2022/11/14 07:05:59;;;;;;;155.75;21.48;;;;;;;6.73;100.00;99004.22;4519855;31;20106;-79
2022/11/14 07:08:26;;;;;;;141.30;21.62;;;;;;;6.83;100.00;99006.66;4520073;31;20083;-79
2022/11/14 07:10:53;;;;;;;169.23;20.42;;;;;;;6.77;100.00;99011.84;4520009;31;20099;-79
2022/11/14 07:13:20;;;;;;;106.57;20.95;;;;;;;6.82;100.00;99010.09;4518086;31;20110;-79
2022/11/14 07:15:54;;;;;;;53.25;17.23;;;;;;;6.93;100.00;99008.22;4520104;31;20145;-79
2022/11/14 07:18:21;;;;;;;60.20;19.48;;;;;;;6.80;100.00;99010.94;4519891;31;20528;-79
2022/11/14 07:20:48;;;;;;;59.42;19.98;;;;;;;6.92;100.00;99018.53;4519566;31;20071;-80
2022/11/14 07:23:15;;;;;;;62.78;20.15;;;;;;;6.51;100.00;99014.72;4520219;31;20551;-79
2022/11/14 07:25:48;;;;;;;37.72;11.63;;;;;;;6.23;100.00;99021.00;4519642;31;20151;-79
2022/11/14 07:28:15;;;;;;;151.35;25.00;;;;;;;6.40;100.00;99018.28;4520238;31;20136;-80
2022/11/14 07:30:41;;;;;;;;;;;;;;;6.11;100.00;99016.84;4520609;31;20078;-79
2022/11/14 07:33:10;;;;;;;61.17;17.58;;;;;;;6.07;100.00;99010.91;4520713;31;19967;-80
2022/11/14 07:35:40;;;;;;;52.22;13.05;;;;;;;6.00;100.00;99009.25;4520172;31;20096;-79
2022/11/14 07:38:07;;;;;;;37.10;14.07;;;;;;;6.44;100.00;99002.81;4519990;31;20083;-79
2022/11/14 07:40:34;;;;;;;82.03;17.58;;;;;;;6.51;100.00;99001.91;4519587;31;20118;-79
2022/11/14 07:43:01;;;;;;;68.80;18.35;;;;;;;5.89;100.00;99002.50;4520002;31;20350;-79
2022/11/14 07:45:28;;;;;;;43.63;13.35;;;;;;;6.16;100.00;98999.69;4520040;31;20456;-79
2022/11/14 07:47:57;;;;;;;31.02;13.15;;;;;;;6.47;100.00;99002.78;4520666;31;20136;-82
2022/11/14 07:50:25;;;;;;;27.67;11.45;;;;;;;6.25;100.00;99004.72;4519983;31;20080;-81
2022/11/14 07:52:54;;;;;;;29.20;11.38;;;;;;;6.52;100.00;99002.75;4507047;31;20096;-82
2022/11/14 07:55:21;;;;;;;51.53;14.60;;;;;;;6.47;100.00;98999.38;4521419;31;20096;-81
2022/11/14 07:57:51;;;;;;;61.80;15.68;;;;;;;6.08;100.00;99010.03;4507605;31;20092;-81
2022/11/14 08:00:18;;;;;;;45.25;13.65;;;;;;;6.24;100.00;99003.03;4520455;31;20071;-81
2022/11/14 08:02:46;;;;;;;43.90;15.07;;;;;;;6.45;100.00;99004.53;4519561;31;20716;-82
2022/11/14 08:05:12;;;;;;;33.97;12.50;;;;;;;6.15;100.00;98999.72;4519863;31;20092;-82
2022/11/14 08:07:39;;;;;;;29.52;10.73;;;;;;;6.36;100.00;98999.50;4519588;31;20087;-82
2022/11/14 08:10:07;;;;;;;41.15;13.85;;;;;;;6.41;100.00;98995.19;4519540;31;20144;-82
2022/11/14 08:12:34;;;;;;;65.85;15.75;;;;;;;6.50;100.00;98987.37;4521159;31;20072;-82
2022/11/14 08:15:01;;;;;;;52.47;15.10;;;;;;;6.42;100.00;98986.63;4529295;31;20103;-82
2022/11/14 08:17:28;;;;;;;39.25;13.98;;;;;;;6.29;100.00;98983.34;4529888;31;20104;-82
2022/11/14 08:19:55;;;;;;;;;;;;;;;6.50;100.00;98981.41;4525901;31;20090;-82
2022/11/14 08:22:21;;;;;;;35.80;13.23;;;;;;;5.95;100.00;98977.69;4520337;31;19994;-81
2022/11/14 08:24:48;;;;;;;;;;;;;;;5.80;100.00;98985.50;4520650;31;20095;-82
2022/11/14 08:27:15;;;;;;;71.93;14.70;;;;;;;5.79;100.00;98976.97;4520441;31;19963;-82
2022/11/14 08:29:42;;;;;;;;;;;;;;;5.98;100.00;98979.37;4522739;31;20084;-82
2022/11/14 08:32:09;;;;;;;45.20;13.62;;;;;;;6.19;100.00;98971.50;4522716;31;20313;-82
2022/11/14 08:34:36;;;;;;;64.10;16.52;;;;;;;5.87;100.00;98976.06;4521848;31;20824;-82
2022/11/14 08:37:03;;;;;;;56.55;17.60;;;;;;;6.37;100.00;98962.72;4525601;31;20177;-83
2022/11/14 08:39:30;;;;;;;56.30;16.42;;;;;;;6.14;100.00;98957.87;4529439;31;20078;-83
2022/11/14 08:41:57;;;;;;;54.05;17.30;;;;;;;6.16;100.00;98966.38;4518621;31;20092;-83
2022/11/14 08:44:23;;;;;;;;;;;;;;;5.81;100.00;98959.00;4530623;31;20099;-83
2022/11/14 08:46:50;;;;;;;45.22;14.38;;;;;;;5.91;100.00;98957.25;4530608;31;19967;-83
2022/11/14 08:49:19;;;;;;;;;;;;;;;6.19;100.00;98952.72;4530753;31;20060;-83
2022/11/14 08:51:46;;;;;;;37.50;11.30;;;;;;;6.16;100.00;98957.84;4530856;31;20052;-83
2022/11/14 08:54:13;;;;;;;81.45;18.83;;;;;;;5.60;100.00;98954.06;4528502;31;20070;-83
2022/11/14 08:56:40;;;;;;;76.72;16.35;;;;;;;5.82;100.00;98951.31;4530993;31;20088;-83
2022/11/14 08:59:08;;;;;;;60.65;16.62;;;;;;;6.29;100.00;98944.91;4526808;31;20653;-82
2022/11/14 09:01:35;;;;;;;65.55;15.98;;;;;;;5.96;100.00;98951.22;4526758;31;20222;-83
2022/11/14 09:04:01;;;;;;;;;;;;;;;6.03;100.00;98946.88;4526719;31;20110;-82
2022/11/14 09:06:28;;;;;;;105.37;19.25;;;;;;;6.39;100.00;98950.78;4518164;31;19985;-82
2022/11/14 09:08:55;;;;;;;76.30;19.08;;;;;;;6.76;100.00;98951.16;4519211;31;20084;-83
2022/11/14 09:11:22;;;;;;;66.07;18.50;;;;;;;6.86;100.00;98955.28;4504747;31;20497;-82
2022/11/14 09:13:49;;;;;;;45.97;16.12;;;;;;;6.14;100.00;98945.06;4519863;31;20095;-83
2022/11/14 09:16:16;;;;;;;;;;;;;;;6.40;100.00;98937.09;4519562;31;20143;-85
2022/11/14 09:18:43;;;;;;;35.40;13.68;;;;;;;6.81;100.00;98945.97;4518956;31;20100;-83
2022/11/14 09:21:11;;;;;;;40.85;14.52;;;;;;;7.08;100.00;98944.72;4519317;31;20140;-83
2022/11/14 09:23:38;;;;;;;64.22;17.00;;;;;;;7.49;100.00;98937.25;4519285;31;20099;-83
2022/11/14 09:26:05;;;;;;;;;;;;;;;6.90;100.00;98940.69;4519001;31;20107;-83
2022/11/14 09:28:32;;;;;;;59.85;16.98;;;;;;;7.00;100.00;98939.69;4519280;31;19968;-84
2022/11/14 09:31:07;;;;;;;53.20;17.00;;;;;;;6.73;100.00;98933.25;4518982;31;20080;-83
2022/11/14 09:33:34;;;;;;;60.38;18.60;;;;;;;6.50;100.00;98923.28;4504698;31;20106;-83
2022/11/14 09:36:04;;;;;;;78.75;17.98;;;;;;;6.77;100.00;98919.50;4519286;31;20092;-82
2022/11/14 09:38:31;;;;;;;96.12;18.98;;;;;;;6.60;100.00;98934.28;4518983;31;20481;-83
2022/11/14 09:41:07;;;;;;;106.53;21.60;;;;;;;6.63;100.00;98918.84;4518833;31;20087;-81
2022/11/14 09:44:02;;;;;;;50.92;17.55;;;;;;;6.79;100.00;98916.91;4519347;31;20096;-83
2022/11/14 09:46:43;;;;;;;62.88;19.00;;;;;;;6.84;100.00;98916.00;4518581;31;20098;-84
2022/11/14 09:49:20;;;;;;;58.38;19.65;;;;;;;7.25;100.00;98924.81;4518927;31;20140;-84
2022/11/14 09:51:51;;;;;;;119.30;22.05;;;;;;;7.44;100.00;98922.78;4504674;31;20096;-86
2022/11/14 09:54:34;;;;;;;53.85;16.20;;;;;;;6.91;100.00;98922.75;4504230;31;20107;-85
2022/11/14 09:57:01;;;;;;;67.93;21.55;;;;;;;6.65;100.00;98920.53;4518990;31;20098;-84
2022/11/14 09:59:28;;;;;;;53.75;19.12;;;;;;;7.08;100.00;98914.78;4518891;31;20544;-84
2022/11/14 10:02:09;;;;;;;50.15;16.15;;;;;;;6.98;100.00;98915.78;4518645;31;20135;-83
2022/11/14 10:05:04;;;;;;;43.25;18.60;;;;;;;7.11;100.00;98908.75;4504331;31;20103;-84
2022/11/14 10:08:05;;;;;;;46.00;18.17;;;;;;;7.35;100.00;98913.53;4518561;31;20088;-85
2022/11/14 10:10:52;;;;;;;56.67;20.80;;;;;;;7.02;100.00;98908.88;4518719;31;20102;-85
2022/11/14 10:13:38;;;;;;;56.72;20.20;;;;;;;7.27;100.00;98906.81;4504618;31;20099;-84
2022/11/14 10:16:28;;;;;;;54.33;20.83;;;;;;;7.35;100.00;98897.28;4518629;31;20100;-83
2022/11/14 10:19:32;;;;;;;50.92;19.10;;;;;;;7.74;100.00;98890.59;4518565;31;20091;-81
2022/11/14 10:22:32;;;;;;;34.78;15.07;;;;;;;7.89;100.00;98895.47;4518381;31;20476;-83
2022/11/14 10:25:02;;;;;;;35.80;15.95;;;;;;;8.34;100.00;98898.91;4513578;31;153151;-81
2022/11/14 10:27:42;;;;;;;32.67;15.93;;;;;;;8.27;100.00;98889.56;4505292;31;20156;-81
2022/11/14 10:30:12;;;;;;;33.60;15.77;;;;;;;8.56;100.00;98893.31;4521797;31;20104;-82
2022/11/14 10:32:49;;;;;;;33.78;13.10;;;;;;;8.62;100.00;98891.47;4505399;31;20119;-81
2022/11/14 10:35:20;;;;;;;33.70;14.95;;;;;;;9.02;100.00;98890.56;4518790;31;20110;-83
2022/11/14 10:38:05;;;;;;;30.50;14.52;;;;;;;8.70;100.00;98886.13;4512586;31;20099;-84
2022/11/14 10:40:45;;;;;;;34.30;16.17;;;;;;;8.60;100.00;98874.34;4527790;31;20167;-82
2022/11/14 10:43:34;;;;;;;57.22;17.45;;;;;;;8.21;100.00;98876.88;4528109;31;20048;-82
2022/11/14 10:46:11;;;;;;;39.22;15.35;;;;;;;7.92;100.00;98874.00;4512873;31;20099;-83
2022/11/14 10:48:58;;;;;;;34.22;14.73;;;;;;;7.77;100.00;98870.00;4523009;31;20100;-82
2022/11/14 10:51:34;;;;;;;39.03;15.30;;;;;;;7.57;100.00;98865.22;4528220;31;20076;-83
2022/11/14 10:54:14;;;;;;;43.58;17.77;;;;;;;7.89;100.00;98859.50;4529752;31;20085;-82
2022/11/14 10:56:46;;;;;;;39.97;15.32;;;;;;;7.84;100.00;98864.72;4511077;31;20116;-83
2022/11/14 10:59:13;;;;;;;37.33;15.73;;;;;;;7.86;100.00;98864.69;4522144;31;20104;-83
2022/11/14 11:01:41;;;;;;;38.35;16.20;;;;;;;7.93;100.00;98860.28;4528732;31;20060;-83
2022/11/14 11:04:21;;;;;;;42.92;17.48;;;;;;;7.81;100.00;98858.78;4531877;31;20168;-83
2022/11/14 11:06:50;;;;;;;46.15;19.17;;;;;;;7.70;100.00;98863.28;4541670;26;20110;-84
2022/11/14 11:12:19;;;;;;;42.10;18.25;;;;;;;7.82;100.00;98863.06;4515190;31;20096;-83
2022/11/14 11:15:12;;;;;;;41.33;17.23;;;;;;;7.70;100.00;98847.88;4512549;31;20079;-83
2022/11/14 11:17:56;;;;;;;38.75;15.73;;;;;;;7.71;100.00;98852.13;4499843;32;20075;-82
2022/11/14 11:20:36;;;;;;;46.05;19.17;;;;;;;7.46;100.00;98857.72;4500302;32;20116;-83
2022/11/14 11:23:05;;;;;;;46.90;19.52;;;;;;;7.15;100.00;98861.66;4499520;32;20061;-83
2022/11/14 11:25:33;;;;;;;44.65;19.20;;;;;;;7.61;100.00;98854.00;4500490;32;20057;-83
2022/11/14 11:28:16;;;;;;;46.85;20.15;;;;;;;7.68;100.00;98845.34;4500705;32;20068;-83
2022/11/14 11:31:01;;;;;;;45.53;17.48;;;;;;;8.14;100.00;98844.44;4502184;32;20113;-83
2022/11/14 11:33:30;;;;;;;45.67;19.98;;;;;;;8.58;100.00;98843.53;4501911;32;20056;-83
2022/11/14 11:36:21;;;;;;;49.53;20.30;;;;;;;8.73;100.00;98844.94;4502725;31;20099;-83